sensor_id;sensor_type;location;lat;lon;timestamp;P1;durP1;ratioP1;P2;durP2;ratioP2
79574;SDS011;69044;48.198;11.468;2023-04-29T00:01:52;0.65;;;0.63;;
79574;SDS011;69044;48.198;11.468;2023-04-29T00:04:25;1.25;;;0.90;;
79574;SDS011;69044;48.198;11.468;2023-04-29T00:09:19;1.08;;;0.85;;
79574;SDS011;69044;48.198;11.468;2023-04-29T00:11:47;1.00;;;0.80;;
79574;SDS011;69044;48.198;11.468;2023-04-29T00:14:15;0.98;;;0.82;;
79574;SDS011;69044;48.198;11.468;2023-04-29T00:16:42;0.77;;;0.70;;
79574;SDS011;69044;48.198;11.468;2023-04-29T00:19:09;0.68;;;0.68;;
79574;SDS011;69044;48.198;11.468;2023-04-29T00:21:39;0.73;;;0.73;;
79574;SDS011;69044;48.198;11.468;2023-04-29T00:24:06;1.33;;;0.80;;
79574;SDS011;69044;48.198;11.468;2023-04-29T00:26:33;0.70;;;0.70;;
79574;SDS011;69044;48.198;11.468;2023-04-29T00:29:00;1.13;;;0.73;;
79574;SDS011;69044;48.198;11.468;2023-04-29T00:31:28;0.93;;;0.73;;
79574;SDS011;69044;48.198;11.468;2023-04-29T00:33:57;0.98;;;0.80;;
79574;SDS011;69044;48.198;11.468;2023-04-29T00:36:24;0.70;;;0.57;;
79574;SDS011;69044;48.198;11.468;2023-04-29T00:41:22;0.68;;;0.60;;
79574;SDS011;69044;48.198;11.468;2023-04-29T00:43:49;0.60;;;0.60;;
79574;SDS011;69044;48.198;11.468;2023-04-29T00:46:17;0.95;;;0.70;;
79574;SDS011;69044;48.198;11.468;2023-04-29T00:48:44;0.68;;;0.60;;
79574;SDS011;69044;48.198;11.468;2023-04-29T00:51:11;0.70;;;0.55;;
79574;SDS011;69044;48.198;11.468;2023-04-29T00:53:39;0.60;;;0.57;;
79574;SDS011;69044;48.198;11.468;2023-04-29T00:56:08;0.70;;;0.70;;
79574;SDS011;69044;48.198;11.468;2023-04-29T00:58:36;0.73;;;0.70;;
79574;SDS011;69044;48.198;11.468;2023-04-29T01:01:04;0.65;;;0.60;;
79574;SDS011;69044;48.198;11.468;2023-04-29T01:03:32;0.50;;;0.50;;
79574;SDS011;69044;48.198;11.468;2023-04-29T01:06:02;1.25;;;0.70;;
79574;SDS011;69044;48.198;11.468;2023-04-29T01:08:37;1.40;;;0.88;;
79574;SDS011;69044;48.198;11.468;2023-04-29T01:11:09;0.98;;;0.80;;
79574;SDS011;69044;48.198;11.468;2023-04-29T01:13:41;0.98;;;0.80;;
79574;SDS011;69044;48.198;11.468;2023-04-29T01:16:10;0.60;;;0.57;;
79574;SDS011;69044;48.198;11.468;2023-04-29T01:18:44;1.00;;;0.70;;
79574;SDS011;69044;48.198;11.468;2023-04-29T01:21:16;1.17;;;0.90;;
79574;SDS011;69044;48.198;11.468;2023-04-29T01:23:45;0.80;;;0.80;;
79574;SDS011;69044;48.198;11.468;2023-04-29T01:26:13;0.63;;;0.57;;
79574;SDS011;69044;48.198;11.468;2023-04-29T01:28:58;0.70;;;0.70;;
79574;SDS011;69044;48.198;11.468;2023-04-29T01:31:35;0.88;;;0.80;;
79574;SDS011;69044;48.198;11.468;2023-04-29T01:34:07;1.05;;;0.80;;
79574;SDS011;69044;48.198;11.468;2023-04-29T01:36:39;1.35;;;0.90;;
79574;SDS011;69044;48.198;11.468;2023-04-29T01:39:30;0.73;;;0.70;;
79574;SDS011;69044;48.198;11.468;2023-04-29T01:42:09;2.03;;;1.23;;
79574;SDS011;69044;48.198;11.468;2023-04-29T01:44:41;1.23;;;0.90;;
79574;SDS011;69044;48.198;11.468;2023-04-29T01:47:12;1.23;;;0.73;;
79574;SDS011;69044;48.198;11.468;2023-04-29T01:49:44;1.33;;;0.85;;
79574;SDS011;69044;48.198;11.468;2023-04-29T01:52:11;1.05;;;0.70;;
79574;SDS011;69044;48.198;11.468;2023-04-29T01:54:42;0.80;;;0.80;;
79574;SDS011;69044;48.198;11.468;2023-04-29T01:57:10;1.08;;;0.85;;
79574;SDS011;69044;48.198;11.468;2023-04-29T01:59:49;1.38;;;0.93;;
79574;SDS011;69044;48.198;11.468;2023-04-29T02:02:35;1.17;;;0.80;;
79574;SDS011;69044;48.198;11.468;2023-04-29T02:05:11;1.85;;;1.10;;
79574;SDS011;69044;48.198;11.468;2023-04-29T02:07:44;1.42;;;1.00;;
79574;SDS011;69044;48.198;11.468;2023-04-29T02:10:12;1.40;;;1.05;;
79574;SDS011;69044;48.198;11.468;2023-04-29T02:12:42;1.10;;;0.88;;
79574;SDS011;69044;48.198;11.468;2023-04-29T02:15:09;0.98;;;0.93;;
79574;SDS011;69044;48.198;11.468;2023-04-29T02:17:36;1.23;;;1.00;;
79574;SDS011;69044;48.198;11.468;2023-04-29T02:20:04;0.75;;;0.68;;
79574;SDS011;69044;48.198;11.468;2023-04-29T02:22:33;1.98;;;1.15;;
79574;SDS011;69044;48.198;11.468;2023-04-29T02:25:00;1.05;;;0.88;;
79574;SDS011;69044;48.198;11.468;2023-04-29T02:27:29;0.77;;;0.70;;
79574;SDS011;69044;48.198;11.468;2023-04-29T02:29:56;1.95;;;1.15;;
79574;SDS011;69044;48.198;11.468;2023-04-29T02:32:24;1.60;;;1.15;;
79574;SDS011;69044;48.198;11.468;2023-04-29T02:34:51;1.30;;;0.98;;
79574;SDS011;69044;48.198;11.468;2023-04-29T02:37:18;2.38;;;1.20;;
79574;SDS011;69044;48.198;11.468;2023-04-29T02:39:46;2.00;;;1.10;;
79574;SDS011;69044;48.198;11.468;2023-04-29T02:42:13;2.10;;;1.15;;
79574;SDS011;69044;48.198;11.468;2023-04-29T02:44:42;1.70;;;1.30;;
79574;SDS011;69044;48.198;11.468;2023-04-29T02:49:37;1.02;;;0.77;;
79574;SDS011;69044;48.198;11.468;2023-04-29T02:52:04;0.77;;;0.70;;
79574;SDS011;69044;48.198;11.468;2023-04-29T02:54:33;1.55;;;1.00;;
79574;SDS011;69044;48.198;11.468;2023-04-29T02:57:01;1.58;;;1.05;;
79574;SDS011;69044;48.198;11.468;2023-04-29T02:59:28;1.60;;;1.10;;
79574;SDS011;69044;48.198;11.468;2023-04-29T03:01:57;2.45;;;1.30;;
79574;SDS011;69044;48.198;11.468;2023-04-29T03:04:24;2.13;;;1.23;;
79574;SDS011;69044;48.198;11.468;2023-04-29T03:06:53;3.33;;;1.20;;
79574;SDS011;69044;48.198;11.468;2023-04-29T03:09:20;2.88;;;1.58;;
79574;SDS011;69044;48.198;11.468;2023-04-29T03:11:48;2.08;;;1.30;;
79574;SDS011;69044;48.198;11.468;2023-04-29T03:14:15;1.95;;;1.25;;
79574;SDS011;69044;48.198;11.468;2023-04-29T03:16:43;1.88;;;1.33;;
79574;SDS011;69044;48.198;11.468;2023-04-29T03:19:12;1.85;;;1.30;;
79574;SDS011;69044;48.198;11.468;2023-04-29T03:24:06;1.75;;;1.13;;
79574;SDS011;69044;48.198;11.468;2023-04-29T03:26:34;2.20;;;1.20;;
79574;SDS011;69044;48.198;11.468;2023-04-29T03:29:03;1.63;;;1.17;;
79574;SDS011;69044;48.198;11.468;2023-04-29T03:31:30;2.63;;;1.40;;
79574;SDS011;69044;48.198;11.468;2023-04-29T03:33:58;1.63;;;1.15;;
79574;SDS011;69044;48.198;11.468;2023-04-29T03:36:27;1.75;;;1.20;;
79574;SDS011;69044;48.198;11.468;2023-04-29T03:39:05;1.77;;;1.20;;
79574;SDS011;69044;48.198;11.468;2023-04-29T03:41:32;1.80;;;1.20;;
79574;SDS011;69044;48.198;11.468;2023-04-29T03:43:59;1.75;;;1.27;;
79574;SDS011;69044;48.198;11.468;2023-04-29T03:46:28;1.95;;;1.30;;
79574;SDS011;69044;48.198;11.468;2023-04-29T03:48:56;1.92;;;1.20;;
79574;SDS011;69044;48.198;11.468;2023-04-29T03:51:24;1.38;;;0.90;;
79574;SDS011;69044;48.198;11.468;2023-04-29T03:53:59;2.45;;;1.42;;
79574;SDS011;69044;48.198;11.468;2023-04-29T03:56:27;5.18;;;2.28;;
79574;SDS011;69044;48.198;11.468;2023-04-29T03:58:54;4.47;;;1.80;;
79574;SDS011;69044;48.198;11.468;2023-04-29T04:01:24;13.05;;;4.10;;
79574;SDS011;69044;48.198;11.468;2023-04-29T04:03:51;6.72;;;2.83;;
79574;SDS011;69044;48.198;11.468;2023-04-29T04:06:19;3.80;;;1.80;;
79574;SDS011;69044;48.198;11.468;2023-04-29T04:08:47;3.30;;;1.60;;
79574;SDS011;69044;48.198;11.468;2023-04-29T04:11:23;4.05;;;1.90;;
79574;SDS011;69044;48.198;11.468;2023-04-29T04:13:56;3.22;;;1.67;;
79574;SDS011;69044;48.198;11.468;2023-04-29T04:16:23;2.47;;;1.40;;
79574;SDS011;69044;48.198;11.468;2023-04-29T04:18:51;2.50;;;1.50;;
79574;SDS011;69044;48.198;11.468;2023-04-29T04:21:18;1.73;;;1.20;;
79574;SDS011;69044;48.198;11.468;2023-04-29T04:24:00;2.22;;;1.33;;
79574;SDS011;69044;48.198;11.468;2023-04-29T04:26:30;1.60;;;1.20;;
79574;SDS011;69044;48.198;11.468;2023-04-29T04:29:07;2.08;;;1.30;;
79574;SDS011;69044;48.198;11.468;2023-04-29T04:31:49;1.98;;;1.30;;
79574;SDS011;69044;48.198;11.468;2023-04-29T04:34:18;3.03;;;1.80;;
79574;SDS011;69044;48.198;11.468;2023-04-29T04:36:47;2.38;;;1.45;;
79574;SDS011;69044;48.198;11.468;2023-04-29T04:39:15;2.90;;;1.60;;
79574;SDS011;69044;48.198;11.468;2023-04-29T04:41:43;2.78;;;1.52;;
79574;SDS011;69044;48.198;11.468;2023-04-29T04:44:11;3.20;;;1.75;;
79574;SDS011;69044;48.198;11.468;2023-04-29T04:46:54;1.52;;;1.10;;
79574;SDS011;69044;48.198;11.468;2023-04-29T04:49:35;2.85;;;1.60;;
79574;SDS011;69044;48.198;11.468;2023-04-29T04:52:06;2.30;;;1.25;;
79574;SDS011;69044;48.198;11.468;2023-04-29T04:54:33;2.65;;;1.52;;
79574;SDS011;69044;48.198;11.468;2023-04-29T04:57:11;2.30;;;1.50;;
79574;SDS011;69044;48.198;11.468;2023-04-29T04:59:38;2.17;;;1.48;;
79574;SDS011;69044;48.198;11.468;2023-04-29T05:02:06;2.95;;;1.60;;
79574;SDS011;69044;48.198;11.468;2023-04-29T05:04:33;2.13;;;1.45;;
79574;SDS011;69044;48.198;11.468;2023-04-29T05:07:01;2.38;;;1.38;;
79574;SDS011;69044;48.198;11.468;2023-04-29T05:09:36;2.03;;;1.33;;
79574;SDS011;69044;48.198;11.468;2023-04-29T05:12:03;2.47;;;1.50;;
79574;SDS011;69044;48.198;11.468;2023-04-29T05:17:00;2.40;;;1.50;;
79574;SDS011;69044;48.198;11.468;2023-04-29T05:19:27;2.03;;;1.45;;
79574;SDS011;69044;48.198;11.468;2023-04-29T05:21:54;3.22;;;1.70;;
79574;SDS011;69044;48.198;11.468;2023-04-29T05:24:22;4.43;;;1.90;;
79574;SDS011;69044;48.198;11.468;2023-04-29T05:26:49;7.35;;;3.47;;
79574;SDS011;69044;48.198;11.468;2023-04-29T05:29:19;7.38;;;3.30;;
79574;SDS011;69044;48.198;11.468;2023-04-29T05:31:52;3.65;;;1.90;;
79574;SDS011;69044;48.198;11.468;2023-04-29T05:36:46;3.05;;;1.52;;
79574;SDS011;69044;48.198;11.468;2023-04-29T05:39:14;2.72;;;1.60;;
79574;SDS011;69044;48.198;11.468;2023-04-29T05:41:42;3.30;;;1.70;;
79574;SDS011;69044;48.198;11.468;2023-04-29T05:44:17;2.95;;;1.80;;
79574;SDS011;69044;48.198;11.468;2023-04-29T05:46:45;3.28;;;1.73;;
79574;SDS011;69044;48.198;11.468;2023-04-29T05:49:15;4.32;;;2.28;;
79574;SDS011;69044;48.198;11.468;2023-04-29T05:51:42;4.70;;;2.50;;
79574;SDS011;69044;48.198;11.468;2023-04-29T05:54:09;4.57;;;2.97;;
79574;SDS011;69044;48.198;11.468;2023-04-29T05:56:36;4.15;;;2.38;;
79574;SDS011;69044;48.198;11.468;2023-04-29T05:59:04;4.53;;;2.70;;
79574;SDS011;69044;48.198;11.468;2023-04-29T06:01:31;4.90;;;2.65;;
79574;SDS011;69044;48.198;11.468;2023-04-29T06:03:58;4.78;;;2.75;;
79574;SDS011;69044;48.198;11.468;2023-04-29T06:06:50;4.65;;;2.60;;
79574;SDS011;69044;48.198;11.468;2023-04-29T06:09:46;4.85;;;2.60;;
79574;SDS011;69044;48.198;11.468;2023-04-29T06:12:13;5.10;;;2.70;;
79574;SDS011;69044;48.198;11.468;2023-04-29T06:14:42;5.25;;;2.70;;
79574;SDS011;69044;48.198;11.468;2023-04-29T06:17:10;4.28;;;2.63;;
79574;SDS011;69044;48.198;11.468;2023-04-29T06:19:37;4.70;;;2.55;;
79574;SDS011;69044;48.198;11.468;2023-04-29T06:22:06;6.40;;;3.20;;
79574;SDS011;69044;48.198;11.468;2023-04-29T06:24:33;8.18;;;3.30;;
79574;SDS011;69044;48.198;11.468;2023-04-29T06:27:01;4.28;;;2.35;;
79574;SDS011;69044;48.198;11.468;2023-04-29T06:29:29;6.53;;;3.45;;
79574;SDS011;69044;48.198;11.468;2023-04-29T06:31:56;4.93;;;3.13;;
79574;SDS011;69044;48.198;11.468;2023-04-29T06:34:24;5.55;;;3.45;;
79574;SDS011;69044;48.198;11.468;2023-04-29T06:37:19;4.25;;;2.33;;
79574;SDS011;69044;48.198;11.468;2023-04-29T06:40:12;5.03;;;2.78;;
79574;SDS011;69044;48.198;11.468;2023-04-29T06:43:18;7.00;;;3.30;;
79574;SDS011;69044;48.198;11.468;2023-04-29T06:46:03;6.07;;;3.08;;
79574;SDS011;69044;48.198;11.468;2023-04-29T06:48:36;4.63;;;2.60;;
79574;SDS011;69044;48.198;11.468;2023-04-29T06:51:03;4.57;;;2.83;;
79574;SDS011;69044;48.198;11.468;2023-04-29T06:53:36;5.55;;;3.08;;
79574;SDS011;69044;48.198;11.468;2023-04-29T06:56:04;19.00;;;4.60;;
79574;SDS011;69044;48.198;11.468;2023-04-29T06:58:32;15.80;;;4.20;;
79574;SDS011;69044;48.198;11.468;2023-04-29T07:00:59;5.40;;;3.20;;
79574;SDS011;69044;48.198;11.468;2023-04-29T07:03:28;5.47;;;3.35;;
79574;SDS011;69044;48.198;11.468;2023-04-29T07:05:56;4.85;;;2.80;;
79574;SDS011;69044;48.198;11.468;2023-04-29T07:08:23;4.95;;;2.95;;
79574;SDS011;69044;48.198;11.468;2023-04-29T07:10:54;5.68;;;3.15;;
79574;SDS011;69044;48.198;11.468;2023-04-29T07:13:22;4.35;;;2.40;;
79574;SDS011;69044;48.198;11.468;2023-04-29T07:15:50;4.65;;;2.90;;
79574;SDS011;69044;48.198;11.468;2023-04-29T07:18:17;5.88;;;3.00;;
79574;SDS011;69044;48.198;11.468;2023-04-29T07:20:44;5.82;;;3.28;;
79574;SDS011;69044;48.198;11.468;2023-04-29T07:23:13;3.65;;;2.42;;
79574;SDS011;69044;48.198;11.468;2023-04-29T07:25:40;5.50;;;3.13;;
79574;SDS011;69044;48.198;11.468;2023-04-29T07:28:09;4.40;;;2.70;;
79574;SDS011;69044;48.198;11.468;2023-04-29T07:30:36;4.50;;;2.72;;
79574;SDS011;69044;48.198;11.468;2023-04-29T07:33:04;4.55;;;2.90;;
79574;SDS011;69044;48.198;11.468;2023-04-29T07:35:31;4.20;;;2.55;;
79574;SDS011;69044;48.198;11.468;2023-04-29T07:37:58;4.60;;;2.75;;
79574;SDS011;69044;48.198;11.468;2023-04-29T07:40:26;4.10;;;2.65;;
79574;SDS011;69044;48.198;11.468;2023-04-29T07:42:56;4.18;;;2.20;;
79574;SDS011;69044;48.198;11.468;2023-04-29T07:45:25;3.33;;;2.28;;
79574;SDS011;69044;48.198;11.468;2023-04-29T07:47:52;4.20;;;2.55;;
79574;SDS011;69044;48.198;11.468;2023-04-29T07:50:19;3.97;;;2.45;;
79574;SDS011;69044;48.198;11.468;2023-04-29T07:52:47;4.07;;;2.50;;
79574;SDS011;69044;48.198;11.468;2023-04-29T07:55:15;3.75;;;2.60;;
79574;SDS011;69044;48.198;11.468;2023-04-29T07:57:43;4.43;;;2.50;;
79574;SDS011;69044;48.198;11.468;2023-04-29T08:00:11;4.22;;;2.63;;
79574;SDS011;69044;48.198;11.468;2023-04-29T08:02:42;16.17;;;3.97;;
79574;SDS011;69044;48.198;11.468;2023-04-29T08:05:12;5.13;;;2.47;;
79574;SDS011;69044;48.198;11.468;2023-04-29T08:07:40;4.75;;;2.80;;
79574;SDS011;69044;48.198;11.468;2023-04-29T08:10:07;4.13;;;2.50;;
79574;SDS011;69044;48.198;11.468;2023-04-29T08:12:36;4.55;;;2.38;;
79574;SDS011;69044;48.198;11.468;2023-04-29T08:15:04;3.42;;;2.20;;
79574;SDS011;69044;48.198;11.468;2023-04-29T08:17:32;48.72;;;5.18;;
79574;SDS011;69044;48.198;11.468;2023-04-29T08:20:00;3.78;;;1.98;;
79574;SDS011;69044;48.198;11.468;2023-04-29T08:22:27;3.88;;;2.05;;
79574;SDS011;69044;48.198;11.468;2023-04-29T08:24:55;3.83;;;2.30;;
79574;SDS011;69044;48.198;11.468;2023-04-29T08:27:22;3.50;;;2.13;;
79574;SDS011;69044;48.198;11.468;2023-04-29T08:29:49;3.55;;;2.13;;
79574;SDS011;69044;48.198;11.468;2023-04-29T08:32:17;3.88;;;2.53;;
79574;SDS011;69044;48.198;11.468;2023-04-29T08:34:44;3.22;;;2.10;;
79574;SDS011;69044;48.198;11.468;2023-04-29T08:37:13;5.10;;;2.08;;
79574;SDS011;69044;48.198;11.468;2023-04-29T08:39:41;3.47;;;2.10;;
79574;SDS011;69044;48.198;11.468;2023-04-29T08:42:11;3.78;;;2.10;;
79574;SDS011;69044;48.198;11.468;2023-04-29T08:44:38;2.72;;;1.85;;
79574;SDS011;69044;48.198;11.468;2023-04-29T08:47:06;2.90;;;1.83;;
79574;SDS011;69044;48.198;11.468;2023-04-29T08:49:34;4.75;;;2.20;;
79574;SDS011;69044;48.198;11.468;2023-04-29T08:52:02;3.97;;;2.13;;
79574;SDS011;69044;48.198;11.468;2023-04-29T08:54:31;6.25;;;2.00;;
79574;SDS011;69044;48.198;11.468;2023-04-29T08:56:58;3.13;;;2.33;;
79574;SDS011;69044;48.198;11.468;2023-04-29T08:59:27;3.50;;;1.67;;
79574;SDS011;69044;48.198;11.468;2023-04-29T09:01:55;3.55;;;1.98;;
79574;SDS011;69044;48.198;11.468;2023-04-29T09:04:25;3.03;;;1.95;;
79574;SDS011;69044;48.198;11.468;2023-04-29T09:06:56;2.65;;;1.67;;
79574;SDS011;69044;48.198;11.468;2023-04-29T09:09:27;3.15;;;2.10;;
79574;SDS011;69044;48.198;11.468;2023-04-29T09:11:56;4.47;;;1.80;;
79574;SDS011;69044;48.198;11.468;2023-04-29T09:14:23;3.33;;;2.10;;
79574;SDS011;69044;48.198;11.468;2023-04-29T09:16:51;2.50;;;1.70;;
79574;SDS011;69044;48.198;11.468;2023-04-29T09:19:28;2.97;;;1.85;;
79574;SDS011;69044;48.198;11.468;2023-04-29T09:21:56;2.70;;;1.80;;
79574;SDS011;69044;48.198;11.468;2023-04-29T09:24:24;5.30;;;1.88;;
79574;SDS011;69044;48.198;11.468;2023-04-29T09:29:20;2.35;;;1.45;;
79574;SDS011;69044;48.198;11.468;2023-04-29T09:31:47;3.33;;;1.60;;
79574;SDS011;69044;48.198;11.468;2023-04-29T09:34:15;4.00;;;1.50;;
79574;SDS011;69044;48.198;11.468;2023-04-29T09:36:43;3.08;;;1.45;;
79574;SDS011;69044;48.198;11.468;2023-04-29T09:39:12;51.50;;;4.82;;
79574;SDS011;69044;48.198;11.468;2023-04-29T09:44:32;2.47;;;1.60;;
79574;SDS011;69044;48.198;11.468;2023-04-29T09:47:02;2.47;;;1.58;;
79574;SDS011;69044;48.198;11.468;2023-04-29T09:49:30;2.10;;;1.50;;
79574;SDS011;69044;48.198;11.468;2023-04-29T09:52:01;2.80;;;1.45;;
79574;SDS011;69044;48.198;11.468;2023-04-29T09:54:29;2.95;;;2.10;;
79574;SDS011;69044;48.198;11.468;2023-04-29T09:56:58;3.15;;;1.80;;
79574;SDS011;69044;48.198;11.468;2023-04-29T09:59:27;2.75;;;1.80;;
79574;SDS011;69044;48.198;11.468;2023-04-29T10:01:56;3.10;;;2.00;;
79574;SDS011;69044;48.198;11.468;2023-04-29T10:04:24;5.03;;;2.30;;
79574;SDS011;69044;48.198;11.468;2023-04-29T10:06:53;3.60;;;1.92;;
79574;SDS011;69044;48.198;11.468;2023-04-29T10:09:21;2.63;;;1.80;;
79574;SDS011;69044;48.198;11.468;2023-04-29T10:11:49;5.35;;;2.08;;
79574;SDS011;69044;48.198;11.468;2023-04-29T10:16:45;3.63;;;1.85;;
79574;SDS011;69044;48.198;11.468;2023-04-29T10:19:25;2.67;;;1.80;;
79574;SDS011;69044;48.198;11.468;2023-04-29T10:21:57;3.35;;;1.67;;
79574;SDS011;69044;48.198;11.468;2023-04-29T10:24:24;3.25;;;2.00;;
79574;SDS011;69044;48.198;11.468;2023-04-29T10:26:52;2.50;;;1.80;;
79574;SDS011;69044;48.198;11.468;2023-04-29T10:29:23;2.67;;;1.63;;
79574;SDS011;69044;48.198;11.468;2023-04-29T10:31:52;2.85;;;1.58;;
79574;SDS011;69044;48.198;11.468;2023-04-29T10:34:20;2.28;;;1.60;;
79574;SDS011;69044;48.198;11.468;2023-04-29T10:36:49;2.65;;;1.83;;
79574;SDS011;69044;48.198;11.468;2023-04-29T10:39:20;2.83;;;1.80;;
79574;SDS011;69044;48.198;11.468;2023-04-29T10:41:50;2.50;;;1.70;;
79574;SDS011;69044;48.198;11.468;2023-04-29T10:44:17;2.50;;;1.80;;
79574;SDS011;69044;48.198;11.468;2023-04-29T10:46:44;2.38;;;1.50;;
79574;SDS011;69044;48.198;11.468;2023-04-29T10:49:11;4.95;;;1.80;;
79574;SDS011;69044;48.198;11.468;2023-04-29T10:51:39;4.35;;;1.70;;
79574;SDS011;69044;48.198;11.468;2023-04-29T10:54:09;2.38;;;1.55;;
79574;SDS011;69044;48.198;11.468;2023-04-29T10:56:39;2.35;;;1.65;;
79574;SDS011;69044;48.198;11.468;2023-04-29T10:59:11;2.40;;;1.70;;
79574;SDS011;69044;48.198;11.468;2023-04-29T11:01:40;2.40;;;1.60;;
79574;SDS011;69044;48.198;11.468;2023-04-29T11:04:08;2.92;;;1.80;;
79574;SDS011;69044;48.198;11.468;2023-04-29T11:06:37;2.72;;;1.65;;
79574;SDS011;69044;48.198;11.468;2023-04-29T11:09:11;2.63;;;1.50;;
79574;SDS011;69044;48.198;11.468;2023-04-29T11:11:46;5.40;;;1.40;;
79574;SDS011;69044;48.198;11.468;2023-04-29T11:14:18;2.20;;;1.50;;
79574;SDS011;69044;48.198;11.468;2023-04-29T11:16:48;3.08;;;1.35;;
79574;SDS011;69044;48.198;11.468;2023-04-29T11:19:18;2.78;;;1.50;;
79574;SDS011;69044;48.198;11.468;2023-04-29T11:21:45;3.67;;;1.58;;
79574;SDS011;69044;48.198;11.468;2023-04-29T11:26:42;3.13;;;1.48;;
79574;SDS011;69044;48.198;11.468;2023-04-29T11:29:10;3.42;;;1.60;;
79574;SDS011;69044;48.198;11.468;2023-04-29T11:31:38;1.75;;;1.20;;
79574;SDS011;69044;48.198;11.468;2023-04-29T11:34:05;2.75;;;1.40;;
79574;SDS011;69044;48.198;11.468;2023-04-29T11:36:33;2.00;;;1.35;;
79574;SDS011;69044;48.198;11.468;2023-04-29T11:39:01;2.20;;;1.50;;
79574;SDS011;69044;48.198;11.468;2023-04-29T11:41:30;4.95;;;1.70;;
79574;SDS011;69044;48.198;11.468;2023-04-29T11:43:58;2.78;;;1.40;;
79574;SDS011;69044;48.198;11.468;2023-04-29T11:46:29;48.15;;;4.93;;
79574;SDS011;69044;48.198;11.468;2023-04-29T11:48:57;3.58;;;1.60;;
79574;SDS011;69044;48.198;11.468;2023-04-29T11:53:52;4.03;;;1.55;;
79574;SDS011;69044;48.198;11.468;2023-04-29T11:56:20;2.72;;;1.40;;
79574;SDS011;69044;48.198;11.468;2023-04-29T11:58:50;2.10;;;1.30;;
79574;SDS011;69044;48.198;11.468;2023-04-29T12:01:20;2.90;;;1.55;;
79574;SDS011;69044;48.198;11.468;2023-04-29T12:03:49;2.25;;;1.48;;
79574;SDS011;69044;48.198;11.468;2023-04-29T12:06:17;2.83;;;1.50;;
79574;SDS011;69044;48.198;11.468;2023-04-29T12:08:45;3.83;;;1.50;;
79574;SDS011;69044;48.198;11.468;2023-04-29T12:13:39;2.85;;;1.50;;
79574;SDS011;69044;48.198;11.468;2023-04-29T12:16:12;1.90;;;1.30;;
79574;SDS011;69044;48.198;11.468;2023-04-29T12:18:39;1.92;;;1.40;;
79574;SDS011;69044;48.198;11.468;2023-04-29T12:21:07;2.80;;;1.85;;
79574;SDS011;69044;48.198;11.468;2023-04-29T12:23:34;1.55;;;1.27;;
79574;SDS011;69044;48.198;11.468;2023-04-29T12:26:02;2.20;;;1.45;;
79574;SDS011;69044;48.198;11.468;2023-04-29T12:28:29;2.10;;;1.30;;
79574;SDS011;69044;48.198;11.468;2023-04-29T12:30:57;3.55;;;1.40;;
79574;SDS011;69044;48.198;11.468;2023-04-29T12:33:26;1.75;;;1.30;;
79574;SDS011;69044;48.198;11.468;2023-04-29T12:35:55;2.00;;;1.30;;
79574;SDS011;69044;48.198;11.468;2023-04-29T12:38:24;2.30;;;1.40;;
79574;SDS011;69044;48.198;11.468;2023-04-29T12:40:52;2.15;;;1.40;;
79574;SDS011;69044;48.198;11.468;2023-04-29T12:43:24;2.08;;;1.35;;
79574;SDS011;69044;48.198;11.468;2023-04-29T12:45:53;1.92;;;1.40;;
79574;SDS011;69044;48.198;11.468;2023-04-29T12:50:48;1.98;;;1.20;;
79574;SDS011;69044;48.198;11.468;2023-04-29T12:53:16;1.92;;;1.20;;
79574;SDS011;69044;48.198;11.468;2023-04-29T12:55:43;3.55;;;1.40;;
79574;SDS011;69044;48.198;11.468;2023-04-29T12:58:11;1.38;;;1.15;;
79574;SDS011;69044;48.198;11.468;2023-04-29T13:00:38;1.90;;;1.20;;
79574;SDS011;69044;48.198;11.468;2023-04-29T13:03:05;4.53;;;1.30;;
79574;SDS011;69044;48.198;11.468;2023-04-29T13:05:33;2.85;;;1.30;;
79574;SDS011;69044;48.198;11.468;2023-04-29T13:08:01;2.13;;;1.30;;
79574;SDS011;69044;48.198;11.468;2023-04-29T13:10:30;2.10;;;1.50;;
79574;SDS011;69044;48.198;11.468;2023-04-29T13:12:58;2.85;;;1.20;;
79574;SDS011;69044;48.198;11.468;2023-04-29T13:15:25;2.22;;;1.30;;
79574;SDS011;69044;48.198;11.468;2023-04-29T13:17:52;2.13;;;1.45;;
79574;SDS011;69044;48.198;11.468;2023-04-29T13:20:20;3.60;;;1.25;;
79574;SDS011;69044;48.198;11.468;2023-04-29T13:22:47;1.67;;;1.20;;
79574;SDS011;69044;48.198;11.468;2023-04-29T13:25:17;2.20;;;1.20;;
79574;SDS011;69044;48.198;11.468;2023-04-29T13:27:44;1.45;;;1.00;;
79574;SDS011;69044;48.198;11.468;2023-04-29T13:30:11;2.45;;;1.10;;
79574;SDS011;69044;48.198;11.468;2023-04-29T13:32:39;2.17;;;1.40;;
79574;SDS011;69044;48.198;11.468;2023-04-29T13:35:07;3.00;;;1.30;;
79574;SDS011;69044;48.198;11.468;2023-04-29T13:37:34;1.73;;;1.13;;
79574;SDS011;69044;48.198;11.468;2023-04-29T13:40:02;1.42;;;1.00;;
79574;SDS011;69044;48.198;11.468;2023-04-29T13:42:33;1.40;;;1.15;;
79574;SDS011;69044;48.198;11.468;2023-04-29T13:45:01;2.03;;;1.27;;
79574;SDS011;69044;48.198;11.468;2023-04-29T13:47:29;1.20;;;1.00;;
79574;SDS011;69044;48.198;11.468;2023-04-29T13:49:56;3.95;;;1.20;;
79574;SDS011;69044;48.198;11.468;2023-04-29T13:52:23;1.50;;;1.20;;
79574;SDS011;69044;48.198;11.468;2023-04-29T13:54:50;3.38;;;1.20;;
79574;SDS011;69044;48.198;11.468;2023-04-29T13:57:18;2.90;;;1.10;;
79574;SDS011;69044;48.198;11.468;2023-04-29T13:59:46;3.60;;;1.30;;
79574;SDS011;69044;48.198;11.468;2023-04-29T14:02:13;1.90;;;1.15;;
79574;SDS011;69044;48.198;11.468;2023-04-29T14:04:41;1.67;;;1.17;;
79574;SDS011;69044;48.198;11.468;2023-04-29T14:07:08;1.70;;;1.20;;
79574;SDS011;69044;48.198;11.468;2023-04-29T14:09:35;2.60;;;1.20;;
79574;SDS011;69044;48.198;11.468;2023-04-29T14:12:03;1.75;;;1.00;;
79574;SDS011;69044;48.198;11.468;2023-04-29T14:14:30;1.90;;;1.30;;
79574;SDS011;69044;48.198;11.468;2023-04-29T14:16:59;1.90;;;1.40;;
79574;SDS011;69044;48.198;11.468;2023-04-29T14:19:31;1.98;;;1.27;;
79574;SDS011;69044;48.198;11.468;2023-04-29T14:21:58;1.52;;;1.20;;
79574;SDS011;69044;48.198;11.468;2023-04-29T14:24:25;1.88;;;1.30;;
79574;SDS011;69044;48.198;11.468;2023-04-29T14:26:52;2.08;;;1.40;;
79574;SDS011;69044;48.198;11.468;2023-04-29T14:29:20;2.92;;;1.42;;
79574;SDS011;69044;48.198;11.468;2023-04-29T14:31:48;2.05;;;1.30;;
79574;SDS011;69044;48.198;11.468;2023-04-29T14:34:17;1.88;;;1.20;;
79574;SDS011;69044;48.198;11.468;2023-04-29T14:36:45;1.98;;;1.20;;
79574;SDS011;69044;48.198;11.468;2023-04-29T14:39:12;1.80;;;1.20;;
79574;SDS011;69044;48.198;11.468;2023-04-29T14:41:39;1.98;;;1.45;;
79574;SDS011;69044;48.198;11.468;2023-04-29T14:44:07;1.80;;;1.20;;
79574;SDS011;69044;48.198;11.468;2023-04-29T14:46:34;3.38;;;1.60;;
79574;SDS011;69044;48.198;11.468;2023-04-29T14:49:01;2.03;;;1.42;;
79574;SDS011;69044;48.198;11.468;2023-04-29T14:51:30;1.40;;;1.10;;
79574;SDS011;69044;48.198;11.468;2023-04-29T14:53:57;2.10;;;1.30;;
79574;SDS011;69044;48.198;11.468;2023-04-29T14:56:26;1.98;;;1.35;;
79574;SDS011;69044;48.198;11.468;2023-04-29T14:58:53;2.75;;;1.40;;
79574;SDS011;69044;48.198;11.468;2023-04-29T15:01:21;1.80;;;1.20;;
79574;SDS011;69044;48.198;11.468;2023-04-29T15:03:48;2.25;;;1.40;;
79574;SDS011;69044;48.198;11.468;2023-04-29T15:06:15;1.90;;;1.30;;
79574;SDS011;69044;48.198;11.468;2023-04-29T15:08:44;2.50;;;1.58;;
79574;SDS011;69044;48.198;11.468;2023-04-29T15:11:11;2.00;;;1.30;;
79574;SDS011;69044;48.198;11.468;2023-04-29T15:13:39;2.80;;;1.50;;
79574;SDS011;69044;48.198;11.468;2023-04-29T15:16:06;1.90;;;1.30;;
79574;SDS011;69044;48.198;11.468;2023-04-29T15:18:34;2.63;;;1.38;;